Time;durP1;ratioP1;P1;durP2;ratioP2;P2;SDS_P1;SDS_P2;PMS_P1;PMS_P2;Temp;Humidity;BMP_temperature;BMP_pressure;BME280_temperature;BME280_humidity;BME280_pressure;Samples;Min_cycle;Max_cycle;Signal;HPM_P1;HPM_P2
2023/06/20 00:01:00;;;;;;;5.10;3.50;;;21.70;99.90;;;;;;5045579;28;20045;-80
2023/06/20 00:03:26;;;;;;;7.38;3.70;;;21.70;99.90;;;;;;5056413;28;20045;-80
2023/06/20 00:05:52;;;;;;;6.78;3.88;;;21.60;99.90;;;;;;5038481;28;20135;-80
2023/06/20 00:08:18;;;;;;;5.97;3.58;;;21.60;99.90;;;;;;5014066;28;20041;-80
2023/06/20 00:10:43;;;;;;;4.60;3.58;;;21.60;99.90;;;;;;5003387;28;20053;-81
2023/06/20 00:13:09;;;;;;;7.05;4.15;;;21.60;99.90;;;;;;5053938;28;20095;-80
2023/06/20 00:15:35;;;;;;;4.68;3.42;;;21.60;99.90;;;;;;5017174;28;20042;-80
2023/06/20 00:18:01;;;;;;;4.22;3.25;;;21.60;99.90;;;;;;5019578;28;20045;-80
2023/06/20 00:20:27;;;;;;;5.95;3.50;;;21.50;99.90;;;;;;5010365;28;20509;-80
2023/06/20 00:22:54;;;;;;;5.78;3.80;;;21.50;99.90;;;;;;5033684;28;20049;-80
2023/06/20 00:25:20;;;;;;;4.95;3.70;;;21.50;99.90;;;;;;5032474;28;20052;-79
2023/06/20 00:27:46;;;;;;;4.53;3.88;;;21.50;99.90;;;;;;5054718;28;20045;-80
2023/06/20 00:30:12;;;;;;;6.25;3.90;;;21.50;99.90;;;;;;5056081;28;20041;-81
2023/06/20 00:32:38;;;;;;;4.85;3.53;;;21.50;99.90;;;;;;5038128;28;20078;-80
2023/06/20 00:35:04;;;;;;;6.18;4.38;;;21.40;99.90;;;;;;5057236;28;20040;-80
2023/06/20 00:37:30;;;;;;;6.13;4.30;;;21.40;99.90;;;;;;5029234;28;20055;-81
2023/06/20 00:39:56;;;;;;;4.65;3.72;;;21.30;99.90;;;;;;5038772;28;20045;-79
2023/06/20 00:42:25;;;;;;;5.25;3.80;;;21.30;99.90;;;;;;5046162;28;20060;-80
2023/06/20 00:44:51;;;;;;;5.53;4.00;;;21.30;99.90;;;;;;5043723;28;20064;-80
2023/06/20 00:47:18;;;;;;;4.53;3.95;;;21.30;99.90;;;;;;5030700;28;20092;-80
2023/06/20 00:49:48;;;;;;;5.55;3.97;;;21.20;99.90;;;;;;5048648;28;20048;-79
2023/06/20 00:52:17;;;;;;;5.75;4.00;;;21.10;99.90;;;;;;5042119;28;20053;-80
2023/06/20 00:54:44;;;;;;;6.15;3.75;;;21.10;99.90;;;;;;5028930;28;20546;-80
2023/06/20 00:57:14;;;;;;;6.05;4.43;;;21.10;99.90;;;;;;5033985;28;20106;-80
2023/06/20 00:59:45;;;;;;;4.78;4.00;;;21.10;99.90;;;;;;5047003;28;20052;-79
2023/06/20 01:02:11;;;;;;;6.50;3.65;;;21.10;99.90;;;;;;5048203;28;20526;-81
2023/06/20 01:04:39;;;;;;;6.75;4.03;;;21.10;99.90;;;;;;5040719;28;20045;-80
2023/06/20 01:07:48;;;;;;;5.47;3.85;;;21.10;99.90;;;;;;5055626;28;20056;-80
2023/06/20 01:10:35;;;;;;;5.05;4.00;;;21.00;99.90;;;;;;5037726;28;20397;-80
2023/06/20 01:13:13;;;;;;;5.35;3.55;;;21.00;99.90;;;;;;5046559;28;20045;-80
2023/06/20 01:15:46;;;;;;;5.75;3.67;;;21.00;99.90;;;;;;5053805;28;20378;-80
2023/06/20 01:18:31;;;;;;;6.78;3.80;;;21.00;99.90;;;;;;5042742;28;20132;-80
2023/06/20 01:21:07;;;;;;;3.83;3.40;;;20.90;99.90;;;;;;5028338;28;20128;-80
2023/06/20 01:23:36;;;;;;;5.32;4.32;;;20.90;99.90;;;;;;5032354;28;20621;-80
2023/06/20 01:26:08;;;;;;;6.03;3.45;;;20.90;99.90;;;;;;5054671;28;20040;-80
2023/06/20 01:28:50;;;;;;;4.38;3.40;;;20.90;99.90;;;;;;5038260;28;20045;-80
2023/06/20 01:31:18;;;;;;;8.82;3.60;;;20.90;99.90;;;;;;5049793;28;20076;-80
2023/06/20 01:33:49;;;;;;;3.60;3.30;;;20.80;99.90;;;;;;5040034;28;20045;-80
2023/06/20 01:36:16;;;;;;;5.65;3.72;;;20.80;99.90;;;;;;5037585;28;20114;-80
2023/06/20 01:38:41;;;;;;;6.45;3.92;;;20.80;99.90;;;;;;5021643;28;20800;-80
2023/06/20 01:41:07;;;;;;;6.30;3.50;;;20.80;99.90;;;;;;5037842;28;20045;-80
2023/06/20 01:43:33;;;;;;;4.63;3.45;;;20.70;99.90;;;;;;5000983;28;20056;-80
2023/06/20 01:46:00;;;;;;;4.50;3.40;;;20.70;99.90;;;;;;5003109;28;20061;-80
2023/06/20 01:48:26;;;;;;;3.97;3.33;;;20.70;99.90;;;;;;5035910;28;20044;-80
2023/06/20 01:50:53;;;;;;;5.47;3.75;;;20.60;99.90;;;;;;5057047;28;20045;-80
2023/06/20 01:53:19;;;;;;;7.10;3.65;;;20.60;99.90;;;;;;5035230;28;20454;-80
2023/06/20 01:55:44;;;;;;;5.97;4.20;;;20.60;99.90;;;;;;5042258;28;20048;-80
2023/06/20 01:58:10;;;;;;;4.10;3.63;;;20.50;99.90;;;;;;5025943;28;20037;-80
2023/06/20 02:00:36;;;;;;;4.20;3.53;;;20.50;99.90;;;;;;5038186;28;20139;-81
2023/06/20 02:03:02;;;;;;;6.07;4.10;;;20.50;99.90;;;;;;5028950;28;20083;-81
2023/06/20 02:05:29;;;;;;;7.80;3.90;;;20.50;99.90;;;;;;5012264;28;20104;-81
2023/06/20 02:07:55;;;;;;;5.75;3.78;;;20.40;99.90;;;;;;5055048;28;20055;-80
2023/06/20 02:10:21;;;;;;;5.10;4.00;;;20.40;99.90;;;;;;5004226;28;20096;-80
2023/06/20 02:12:49;;;;;;;4.07;3.58;;;20.50;99.90;;;;;;5019396;28;20049;-80
2023/06/20 02:15:15;;;;;;;6.80;4.18;;;20.50;99.90;;;;;;5017447;28;20033;-80
2023/06/20 02:17:41;;;;;;;5.80;3.97;;;20.40;99.90;;;;;;5047901;28;20052;-80
2023/06/20 02:20:07;;;;;;;4.93;3.67;;;20.40;99.90;;;;;;5017112;28;20041;-80
2023/06/20 02:22:33;;;;;;;4.55;3.70;;;20.40;99.90;;;;;;5025174;28;20110;-80
2023/06/20 02:25:01;;;;;;;5.15;3.92;;;20.40;99.90;;;;;;5033353;28;20766;-80
2023/06/20 02:27:27;;;;;;;5.95;4.30;;;20.30;99.90;;;;;;5057363;28;20040;-80
2023/06/20 02:29:53;;;;;;;5.38;4.10;;;20.30;99.90;;;;;;5046677;28;20052;-80
2023/06/20 02:32:19;;;;;;;4.95;4.45;;;20.30;99.90;;;;;;5040406;28;20469;-80
2023/06/20 02:34:46;;;;;;;8.00;4.28;;;20.30;99.90;;;;;;5033787;28;20037;-80
2023/06/20 02:37:12;;;;;;;5.20;4.70;;;20.20;99.90;;;;;;5028669;28;20041;-80
2023/06/20 02:39:37;;;;;;;5.90;4.45;;;20.20;99.90;;;;;;5013346;28;20473;-80
2023/06/20 02:42:03;;;;;;;5.10;4.55;;;20.20;99.90;;;;;;5011000;28;20036;-80
2023/06/20 02:44:29;;;;;;;5.20;4.45;;;20.30;99.90;;;;;;5036268;28;20037;-80
2023/06/20 02:47:17;;;;;;;5.57;5.05;;;20.20;99.90;;;;;;5039070;28;20381;-80
2023/06/20 02:50:09;;;;;;;5.13;4.30;;;20.20;99.90;;;;;;5062384;28;20107;-80
2023/06/20 02:53:00;;;;;;;6.65;5.00;;;20.20;99.90;;;;;;5023173;28;20450;-79
2023/06/20 02:55:37;;;;;;;7.28;4.82;;;20.20;99.90;;;;;;5032688;28;20048;-79
2023/06/20 02:58:13;;;;;;;5.45;4.80;;;20.20;99.90;;;;;;5027663;28;20080;-79
2023/06/20 03:00:44;;;;;;;6.95;5.10;;;20.20;99.90;;;;;;5034305;28;20041;-79
2023/06/20 03:03:14;;;;;;;8.60;5.53;;;20.20;99.90;;;;;;5035063;28;20052;-80
2023/06/20 03:05:42;;;;;;;7.50;5.35;;;20.20;99.90;;;;;;5047386;28;20054;-80
2023/06/20 03:08:08;;;;;;;7.97;5.97;;;20.20;99.90;;;;;;5028504;28;20057;-79
2023/06/20 03:10:34;;;;;;;7.35;5.68;;;20.20;99.90;;;;;;5004718;28;20053;-80
2023/06/20 03:13:01;;;;;;;6.63;5.38;;;20.20;99.90;;;;;;5021449;28;20052;-80
2023/06/20 03:15:27;;;;;;;5.93;5.32;;;20.20;99.90;;;;;;5057432;28;20056;-80
2023/06/20 03:17:53;;;;;;;8.90;5.63;;;20.20;99.90;;;;;;5037763;28;20080;-79
2023/06/20 03:20:20;;;;;;;7.47;5.45;;;20.20;99.90;;;;;;5028122;28;20437;-79
2023/06/20 03:22:45;;;;;;;7.68;5.80;;;20.20;99.90;;;;;;5031761;28;20056;-80
2023/06/20 03:25:11;;;;;;;7.47;5.93;;;20.30;99.90;;;;;;5035816;28;20041;-80
2023/06/20 03:27:38;;;;;;;7.03;5.75;;;20.30;99.90;;;;;;5029739;28;20099;-79
2023/06/20 03:30:05;;;;;;;7.80;5.72;;;20.30;99.90;;;;;;5032614;28;20391;-79
2023/06/20 03:32:31;;;;;;;7.20;5.70;;;20.30;99.90;;;;;;5027312;28;20053;-80
2023/06/20 03:34:57;;;;;;;8.77;5.45;;;20.30;99.90;;;;;;5023037;28;20076;-80
2023/06/20 03:37:22;;;;;;;7.45;6.15;;;20.30;99.90;;;;;;5023469;28;20041;-79
2023/06/20 03:39:48;;;;;;;6.75;6.05;;;20.30;99.90;;;;;;5046792;28;20060;-79
2023/06/20 03:42:14;;;;;;;8.05;6.28;;;20.30;99.90;;;;;;5053754;28;20045;-80
2023/06/20 03:44:39;;;;;;;7.75;6.80;;;20.30;99.90;;;;;;5023551;28;20761;-80
2023/06/20 03:47:05;;;;;;;8.40;6.40;;;20.30;99.90;;;;;;5033790;28;20516;-79
2023/06/20 03:49:31;;;;;;;9.15;6.60;;;20.30;99.90;;;;;;5039431;28;20599;-80
2023/06/20 03:51:57;;;;;;;8.45;6.20;;;20.30;99.90;;;;;;5016955;28;20052;-79
2023/06/20 03:54:22;;;;;;;7.15;6.10;;;20.30;99.90;;;;;;5042362;28;20446;-78
2023/06/20 03:56:49;;;;;;;8.80;6.40;;;20.30;99.90;;;;;;5035021;28;20037;-79
2023/06/20 03:59:14;;;;;;;9.88;6.93;;;20.30;99.90;;;;;;5027882;28;20048;-79
2023/06/20 04:01:40;;;;;;;7.22;6.20;;;20.30;99.90;;;;;;5033376;28;20038;-78
2023/06/20 04:04:06;;;;;;;9.27;6.53;;;20.30;99.90;;;;;;5042989;28;20056;-79
2023/06/20 04:06:32;;;;;;;6.68;5.97;;;20.30;99.90;;;;;;5041835;28;20064;-79
2023/06/20 04:08:58;;;;;;;8.10;7.20;;;20.30;99.90;;;;;;5052197;28;20060;-79
2023/06/20 04:11:24;;;;;;;8.23;6.72;;;20.30;99.90;;;;;;5036353;28;20053;-79
2023/06/20 04:13:50;;;;;;;8.10;7.10;;;20.30;99.90;;;;;;5038060;28;20064;-78
2023/06/20 04:16:15;;;;;;;8.65;6.55;;;20.30;99.90;;;;;;5051304;28;20036;-79
2023/06/20 04:18:41;;;;;;;8.45;6.50;;;20.40;99.90;;;;;;5027476;28;20465;-79
2023/06/20 04:21:07;;;;;;;8.75;7.05;;;20.40;99.90;;;;;;5014573;28;20363;-79
2023/06/20 04:23:33;;;;;;;10.68;7.57;;;20.50;99.90;;;;;;5018759;28;20037;-79
2023/06/20 04:25:59;;;;;;;9.65;7.65;;;20.50;99.90;;;;;;5027558;28;20041;-79
2023/06/20 04:28:24;;;;;;;8.02;6.70;;;20.50;99.90;;;;;;5034273;28;20041;-79
2023/06/20 04:30:52;;;;;;;9.50;6.70;;;20.50;99.90;;;;;;5043091;28;20260;-80
2023/06/20 04:33:19;;;;;;;8.68;7.78;;;20.50;99.90;;;;;;5049629;28;20340;-79
2023/06/20 04:35:46;;;;;;;9.68;8.60;;;20.60;99.90;;;;;;5013244;28;20080;-79
2023/06/20 04:38:12;;;;;;;10.50;8.43;;;20.60;99.90;;;;;;5033358;28;20053;-79
2023/06/20 04:40:39;;;;;;;12.65;7.78;;;20.70;99.90;;;;;;5054541;28;20060;-79
2023/06/20 04:43:05;;;;;;;12.35;8.20;;;20.70;99.90;;;;;;5035022;28;20036;-79
2023/06/20 04:45:31;;;;;;;12.02;8.50;;;20.70;99.90;;;;;;5032944;28;20064;-79
2023/06/20 04:47:57;;;;;;;15.23;8.10;;;20.80;99.90;;;;;;5030235;28;20056;-78
2023/06/20 04:50:23;;;;;;;14.43;8.40;;;20.80;99.90;;;;;;5003273;28;20045;-79
2023/06/20 04:52:49;;;;;;;8.48;7.57;;;20.80;99.90;;;;;;5036685;28;20163;-79
2023/06/20 04:55:15;;;;;;;16.13;9.60;;;20.90;99.90;;;;;;4995330;28;20124;-79
2023/06/20 04:57:42;;;;;;;15.57;9.13;;;20.90;99.90;;;;;;5037949;28;20133;-79
2023/06/20 05:00:13;;;;;;;11.32;9.10;;;20.90;99.90;;;;;;5034775;28;20462;-79
2023/06/20 05:02:42;;;;;;;9.38;7.78;;;20.90;99.90;;;;;;5047514;28;20146;-78
2023/06/20 05:05:11;;;;;;;16.08;8.57;;;21.00;99.90;;;;;;5019534;28;20053;-79
2023/06/20 05:07:40;;;;;;;13.05;8.70;;;21.00;99.90;;;;;;5027385;28;20120;-79
2023/06/20 05:10:06;;;;;;;12.13;9.13;;;21.00;99.90;;;;;;5009154;28;20045;-79
2023/06/20 05:12:32;;;;;;;10.52;8.25;;;21.10;99.90;;;;;;5043769;28;20071;-79
2023/06/20 05:14:59;;;;;;;11.55;8.55;;;21.10;99.90;;;;;;5044667;28;20038;-80
2023/06/20 05:17:25;;;;;;;9.80;8.80;;;21.10;99.90;;;;;;5018289;28;20166;-80
2023/06/20 05:19:54;;;;;;;10.88;9.20;;;21.10;99.90;;;;;;5046724;28;20042;-77
2023/06/20 05:22:20;;;;;;;10.70;8.75;;;21.10;99.90;;;;;;5032939;28;20382;-78
2023/06/20 05:24:46;;;;;;;12.75;9.75;;;21.10;99.90;;;;;;5054080;28;20045;-77
2023/06/20 05:27:12;;;;;;;14.98;9.45;;;21.20;99.90;;;;;;5050171;28;20056;-77
2023/06/20 05:29:38;;;;;;;12.10;9.55;;;21.20;99.90;;;;;;5038553;28;20049;-78
2023/06/20 05:32:06;;;;;;;9.65;8.35;;;21.20;99.90;;;;;;5025177;28;20056;-78
2023/06/20 05:34:31;;;;;;;15.23;9.73;;;21.20;99.90;;;;;;5058758;28;20056;-79
2023/06/20 05:36:57;;;;;;;13.38;10.50;;;21.20;99.90;;;;;;5029600;28;20478;-77
2023/06/20 05:39:23;;;;;;;9.80;8.80;;;21.30;99.90;;;;;;5047449;28;20099;-77
2023/06/20 05:41:49;;;;;;;10.73;9.02;;;21.30;99.90;;;;;;5041966;28;20088;-76
2023/06/20 05:44:15;;;;;;;10.85;8.82;;;21.30;99.90;;;;;;5039763;28;20056;-77
2023/06/20 05:46:41;;;;;;;10.57;8.52;;;21.30;99.90;;;;;;5020713;28;20454;-77
2023/06/20 05:49:10;;;;;;;10.07;9.05;;;21.30;99.90;;;;;;5051282;28;20127;-78
2023/06/20 05:51:36;;;;;;;12.25;8.75;;;21.30;99.90;;;;;;5029310;28;20076;-77
2023/06/20 05:54:01;;;;;;;12.98;8.93;;;21.40;99.90;;;;;;5016821;28;20044;-78
2023/06/20 05:56:27;;;;;;;11.07;9.18;;;21.40;99.90;;;;;;5025527;28;20420;-77
2023/06/20 05:58:53;;;;;;;10.10;9.10;;;21.40;99.90;;;;;;5035988;28;20049;-77
2023/06/20 06:01:19;;;;;;;11.25;9.32;;;21.40;99.90;;;;;;5019370;28;20052;-77
2023/06/20 06:03:47;;;;;;;10.23;9.23;;;21.40;99.90;;;;;;5041091;28;20477;-77
2023/06/20 06:06:13;;;;;;;13.68;10.43;;;21.40;99.90;;;;;;5054937;28;20045;-77
2023/06/20 06:08:40;;;;;;;10.57;9.50;;;21.40;99.90;;;;;;5026077;28;20049;-78
2023/06/20 06:11:07;;;;;;;12.02;9.85;;;21.30;99.90;;;;;;5057644;28;20052;-77
2023/06/20 06:13:33;;;;;;;12.52;9.07;;;21.30;99.90;;;;;;5054467;28;20098;-76
2023/06/20 06:15:59;;;;;;;12.15;10.30;;;21.30;99.90;;;;;;5040817;28;20107;-77
2023/06/20 06:18:25;;;;;;;11.90;9.05;;;21.10;99.90;;;;;;5024381;28;20048;-77
2023/06/20 06:20:51;;;;;;;13.02;9.80;;;21.10;99.90;;;;;;5057409;28;20424;-77
2023/06/20 06:23:17;;;;;;;14.60;9.00;;;21.00;99.90;;;;;;5025688;28;20056;-77
2023/06/20 06:25:44;;;;;;;11.23;9.10;;;21.00;99.90;;;;;;5056217;28;20677;-77
2023/06/20 06:28:10;;;;;;;13.13;10.23;;;20.90;99.90;;;;;;5045437;28;20048;-77
2023/06/20 06:30:36;;;;;;;14.55;9.88;;;20.90;99.90;;;;;;5060552;28;20040;-77
2023/06/20 06:33:02;;;;;;;13.07;10.27;;;20.90;99.90;;;;;;5024933;28;20086;-77
2023/06/20 06:35:30;;;;;;;12.10;10.50;;;20.90;99.90;;;;;;5044453;28;20049;-77
2023/06/20 06:37:56;;;;;;;15.38;11.20;;;20.80;99.90;;;;;;5041288;28;20041;-77
2023/06/20 06:40:22;;;;;;;15.00;11.70;;;20.80;99.90;;;;;;5057456;28;20113;-77
2023/06/20 06:42:47;;;;;;;14.65;11.90;;;20.80;99.90;;;;;;5043156;28;20557;-77
2023/06/20 06:45:13;;;;;;;16.55;12.05;;;20.80;99.90;;;;;;5058044;28;20067;-77
2023/06/20 06:47:39;;;;;;;15.88;12.40;;;20.80;99.90;;;;;;5060759;28;20052;-77
2023/06/20 06:50:06;;;;;;;16.55;12.63;;;20.80;99.90;;;;;;5021563;28;20049;-77
2023/06/20 06:52:33;;;;;;;19.42;12.23;;;20.90;99.90;;;;;;5037872;28;20444;-77
2023/06/20 06:54:59;;;;;;;16.10;13.30;;;20.80;99.90;;;;;;5030102;28;20057;-84
2023/06/20 06:57:25;;;;;;;18.30;14.18;;;20.80;99.90;;;;;;5018945;28;20393;-84
2023/06/20 06:59:53;;;;;;;16.42;13.32;;;20.80;99.90;;;;;;5020924;28;20149;-84
2023/06/20 07:02:20;;;;;;;17.95;15.63;;;20.80;99.90;;;;;;5012384;28;20056;-89
2023/06/20 07:04:46;;;;;;;21.95;16.45;;;20.70;99.90;;;;;;5015900;28;20381;-87
2023/06/20 07:07:12;;;;;;;18.10;14.70;;;20.80;99.90;;;;;;5002251;28;20045;-86
2023/06/20 07:09:38;;;;;;;16.15;13.88;;;20.80;99.90;;;;;;5022856;28;20140;-88
2023/06/20 07:12:04;;;;;;;15.77;13.40;;;20.80;99.90;;;;;;5018991;28;20052;-87
2023/06/20 07:14:31;;;;;;;15.30;12.98;;;20.80;99.90;;;;;;5007937;28;20076;-87
2023/06/20 07:16:57;;;;;;;17.17;13.95;;;20.80;99.90;;;;;;5028850;28;20037;-88
2023/06/20 07:19:23;;;;;;;16.77;14.77;;;20.90;99.90;;;;;;5019989;28;20099;-87
2023/06/20 07:21:49;;;;;;;17.65;13.75;;;20.90;99.90;;;;;;5038534;28;20041;-87
2023/06/20 07:24:15;;;;;;;17.50;13.98;;;20.90;99.90;;;;;;5031124;28;20370;-86
2023/06/20 07:26:43;;;;;;;18.80;13.88;;;20.90;99.90;;;;;;5054167;28;20059;-87
2023/06/20 07:29:09;;;;;;;16.90;14.13;;;20.90;99.90;;;;;;5044950;28;20134;-87
2023/06/20 07:32:04;;;;;;;18.02;14.48;;;20.90;99.90;;;;;;5008340;28;20426;-87
2023/06/20 07:34:30;;;;;;;16.60;14.80;;;21.00;99.90;;;;;;5020751;28;20466;-87
2023/06/20 07:36:56;;;;;;;16.67;15.02;;;21.00;99.90;;;;;;5037364;28;20090;-87
2023/06/20 07:39:22;;;;;;;17.17;15.05;;;21.00;99.90;;;;;;5037257;28;20044;-87
2023/06/20 07:41:48;;;;;;;19.85;14.68;;;21.00;99.90;;;;;;5021805;28;20041;-88
2023/06/20 07:44:13;;;;;;;15.57;13.80;;;21.00;99.90;;;;;;5027808;28;20041;-87
2023/06/20 07:46:39;;;;;;;18.77;14.77;;;21.00;99.90;;;;;;5028225;28;20063;-87
2023/06/20 07:49:06;;;;;;;16.98;14.88;;;21.00;99.90;;;;;;5007674;28;20080;-87
2023/06/20 07:51:36;;;;;;;16.60;14.85;;;21.10;99.90;;;;;;5017620;28;20106;-87
2023/06/20 07:54:03;;;;;;;19.55;15.40;;;21.10;99.90;;;;;;5034610;28;20533;-86
2023/06/20 07:56:28;;;;;;;17.20;15.15;;;21.10;99.90;;;;;;5019990;28;20037;-88
2023/06/20 07:58:54;;;;;;;16.70;15.00;;;21.10;99.90;;;;;;5018672;28;20091;-89
2023/06/20 08:01:22;;;;;;;18.92;15.70;;;21.20;99.90;;;;;;5029777;28;20095;-88
2023/06/20 08:03:48;;;;;;;;;;;21.10;99.90;;;;;;5018844;28;20077;-87
2023/06/20 08:06:14;;;;;;;17.83;15.88;;;21.20;99.90;;;;;;5023221;28;19944;-87
2023/06/20 08:08:40;;;;;;;19.00;15.52;;;21.20;99.90;;;;;;5019522;28;20056;-87
2023/06/20 08:11:05;;;;;;;18.83;15.52;;;21.30;99.90;;;;;;5017679;28;20041;-87
2023/06/20 08:13:31;;;;;;;18.13;15.80;;;21.30;99.90;;;;;;5004833;28;20481;-88
2023/06/20 08:15:57;;;;;;;15.70;14.10;;;21.30;99.90;;;;;;5001319;28;20525;-88
2023/06/20 08:18:23;;;;;;;17.30;15.50;;;21.30;99.90;;;;;;5017555;28;20099;-88
2023/06/20 08:20:49;;;;;;;18.38;15.48;;;21.40;99.90;;;;;;5015454;28;20390;-87
2023/06/20 08:23:22;;;;;;;16.42;14.73;;;21.50;99.90;;;;;;5006370;28;20048;-87
2023/06/20 08:25:47;;;;;;;16.55;14.95;;;21.50;99.90;;;;;;5038727;28;20045;-88
2023/06/20 08:28:13;;;;;;;19.92;15.50;;;21.50;99.90;;;;;;5019885;28;20105;-87
2023/06/20 08:30:39;;;;;;;16.60;14.80;;;21.60;99.90;;;;;;5039455;28;20040;-87
2023/06/20 08:33:05;;;;;;;15.68;14.05;;;21.60;99.90;;;;;;5057267;28;20346;-87
2023/06/20 08:35:30;;;;;;;16.13;13.57;;;21.70;99.90;;;;;;5044806;28;20044;-88
2023/06/20 08:37:58;;;;;;;13.68;12.27;;;21.80;99.90;;;;;;5022375;28;20750;-88
2023/06/20 08:40:24;;;;;;;14.18;12.65;;;21.80;99.90;;;;;;5022000;28;20045;-88
2023/06/20 08:42:50;;;;;;;14.05;12.57;;;21.90;99.90;;;;;;5046424;28;20473;-88
2023/06/20 08:45:20;;;;;;;14.15;12.55;;;22.00;99.90;;;;;;5032541;28;20057;-88
2023/06/20 08:47:46;;;;;;;15.57;12.93;;;22.10;99.90;;;;;;5015175;28;20042;-88
2023/06/20 08:50:14;;;;;;;14.55;12.88;;;22.20;99.90;;;;;;5021759;28;20052;-87
2023/06/20 08:52:49;;;;;;;15.73;14.13;;;22.30;99.90;;;;;;5010994;28;20373;-88
2023/06/20 08:55:17;;;;;;;14.70;13.38;;;22.40;99.90;;;;;;5003439;28;20037;-88
2023/06/20 08:57:45;;;;;;;15.70;14.18;;;22.40;99.90;;;;;;4993067;28;20041;-88
2023/06/20 09:00:17;;;;;;;14.02;12.60;;;22.50;99.90;;;;;;4991804;28;20129;-88
2023/06/20 09:02:43;;;;;;;12.80;11.50;;;22.50;99.90;;;;;;5024936;28;20048;-88
2023/06/20 09:05:09;;;;;;;12.88;11.18;;;22.50;99.90;;;;;;5029756;28;20045;-88
2023/06/20 09:07:39;;;;;;;13.35;11.95;;;22.60;99.90;;;;;;5034692;28;20607;-88
2023/06/20 09:10:06;;;;;;;14.13;12.68;;;22.60;99.90;;;;;;5025303;28;20045;-88
2023/06/20 09:13:08;;;;;;;14.27;12.77;;;22.70;99.90;;;;;;4998196;28;20127;-87
2023/06/20 09:15:34;;;;;;;15.52;12.93;;;22.70;99.90;;;;;;5018282;28;20140;-87
2023/06/20 09:18:01;;;;;;;13.13;11.73;;;22.80;99.90;;;;;;5036630;28;20073;-87
2023/06/20 09:20:31;;;;;;;12.43;10.57;;;22.90;99.90;;;;;;5026396;28;20038;-87
2023/06/20 09:22:57;;;;;;;12.63;10.65;;;22.90;99.90;;;;;;5023915;28;20370;-88
2023/06/20 09:25:25;;;;;;;10.95;9.88;;;23.00;99.90;;;;;;5054406;28;20036;-87
2023/06/20 09:27:51;;;;;;;11.23;9.40;;;23.10;99.90;;;;;;5054791;28;20134;-87
2023/06/20 09:30:17;;;;;;;11.15;8.82;;;23.20;99.90;;;;;;5040484;28;20049;-86
2023/06/20 09:32:44;;;;;;;9.98;8.80;;;23.30;99.90;;;;;;5021086;28;20387;-85
2023/06/20 09:35:18;;;;;;;9.95;8.13;;;23.30;99.90;;;;;;5031433;28;20106;-85
2023/06/20 09:37:46;;;;;;;8.88;7.97;;;23.40;99.90;;;;;;5012134;28;20049;-85
2023/06/20 09:40:22;;;;;;;9.90;8.88;;;23.40;99.90;;;;;;5051657;28;20037;-85
2023/06/20 09:42:47;;;;;;;9.35;8.35;;;23.40;99.90;;;;;;5050686;28;20056;-85
2023/06/20 09:45:14;;;;;;;10.85;9.80;;;23.50;99.90;;;;;;5043832;28;20065;-85
2023/06/20 09:47:41;;;;;;;11.73;8.82;;;23.20;99.90;;;;;;5027178;28;20049;-85
2023/06/20 09:50:19;;;;;;;10.00;9.00;;;23.40;99.90;;;;;;5055991;28;20117;-85
2023/06/20 09:52:59;;;;;;;11.38;9.93;;;23.40;99.90;;;;;;5006662;28;20075;-84
2023/06/20 09:55:25;;;;;;;10.88;9.75;;;23.30;99.90;;;;;;5028397;28;20113;-85
2023/06/20 09:57:55;;;;;;;9.80;8.80;;;23.20;99.90;;;;;;5018708;28;20073;-84
2023/06/20 10:00:23;;;;;;;11.65;8.77;;;23.40;99.90;;;;;;5013788;28;20045;-85
2023/06/20 10:02:51;;;;;;;9.65;8.70;;;23.40;99.90;;;;;;5040229;28;20053;-85
2023/06/20 10:05:18;;;;;;;11.80;8.68;;;23.50;99.90;;;;;;5009079;28;20041;-85
2023/06/20 10:07:45;;;;;;;10.80;9.25;;;23.60;99.90;;;;;;5012729;28;20152;-84
2023/06/20 10:10:14;;;;;;;10.27;9.13;;;23.60;99.90;;;;;;5008292;28;20114;-85
2023/06/20 10:12:41;;;;;;;10.73;8.88;;;23.70;99.90;;;;;;5031752;28;20331;-85
2023/06/20 10:15:10;;;;;;;11.80;9.13;;;23.70;99.90;;;;;;5022460;28;20045;-85
2023/06/20 10:17:46;;;;;;;9.50;8.60;;;23.80;99.90;;;;;;5034694;28;20037;-84
2023/06/20 10:20:31;;;;;;;9.30;8.40;;;23.90;99.90;;;;;;5028487;28;20041;-86
2023/06/20 10:22:58;;;;;;;9.98;9.07;;;24.00;99.90;;;;;;5023459;28;20053;-85
2023/06/20 10:25:26;;;;;;;10.45;9.07;;;24.00;99.90;;;;;;5035982;28;20055;-86
2023/06/20 10:27:57;;;;;;;10.83;9.73;;;24.00;99.90;;;;;;5018669;28;20122;-86
2023/06/20 10:30:54;;;;;;;10.18;9.07;;;23.90;99.90;;;;;;5027260;28;20280;-87
2023/06/20 10:33:37;;;;;;;10.48;8.93;;;23.90;99.90;;;;;;5029998;28;20115;-87
2023/06/20 10:36:06;;;;;;;8.98;7.88;;;23.90;99.90;;;;;;5026319;28;20368;-88
2023/06/20 10:38:37;;;;;;;9.05;7.70;;;24.00;99.90;;;;;;5025371;28;20484;-87
2023/06/20 10:41:09;;;;;;;8.50;7.50;;;24.00;99.90;;;;;;5033636;28;20049;-87
2023/06/20 10:43:54;;;;;;;7.53;6.55;;;24.10;99.90;;;;;;5034446;28;20071;-86
2023/06/20 10:46:36;;;;;;;7.43;6.72;;;24.30;99.90;;;;;;5013916;28;20061;-86
2023/06/20 10:49:04;;;;;;;6.55;5.78;;;24.40;99.90;;;;;;5052284;28;20110;-87
2023/06/20 10:51:30;;;;;;;7.60;6.80;;;24.40;99.90;;;;;;5008386;28;20052;-86
2023/06/20 10:54:09;;;;;;;7.68;6.55;;;24.60;99.90;;;;;;5028986;28;20045;-87
2023/06/20 10:56:35;;;;;;;7.78;6.97;;;24.50;99.90;;;;;;5002440;28;20079;-88
2023/06/20 10:59:15;;;;;;;7.88;6.35;;;24.50;99.90;;;;;;5010511;28;20075;-88
2023/06/20 11:01:41;;;;;;;6.63;6.03;;;24.60;99.90;;;;;;4993167;28;20136;-88
2023/06/20 11:04:08;;;;;;;7.50;6.78;;;24.60;99.90;;;;;;5008832;28;20103;-87
2023/06/20 11:06:34;;;;;;;6.43;5.82;;;24.60;99.90;;;;;;5041561;28;20851;-87
2023/06/20 11:08:59;;;;;;;6.68;6.07;;;24.70;99.90;;;;;;5028447;28;20045;-87
2023/06/20 11:11:38;;;;;;;7.43;6.13;;;24.70;99.90;;;;;;5038104;28;20477;-87
2023/06/20 11:14:10;;;;;;;8.00;6.50;;;24.70;99.90;;;;;;5010664;28;20037;-86
2023/06/20 11:16:36;;;;;;;6.75;6.13;;;24.70;99.90;;;;;;5004332;28;20407;-86
2023/06/20 11:19:05;;;;;;;6.97;6.28;;;24.90;99.90;;;;;;5033638;28;20109;-87
2023/06/20 11:21:31;;;;;;;7.95;6.00;;;25.00;99.90;;;;;;5015135;28;20037;-86
2023/06/20 11:24:00;;;;;;;7.10;5.65;;;25.10;99.90;;;;;;5031761;28;20074;-87
2023/06/20 11:26:33;;;;;;;6.50;5.07;;;25.20;99.90;;;;;;5022683;28;20049;-87
2023/06/20 11:29:03;;;;;;;6.60;5.60;;;25.00;99.90;;;;;;5011858;28;20082;-87
2023/06/20 11:31:29;;;;;;;7.22;5.88;;;24.80;99.90;;;;;;5032330;28;20088;-87
2023/06/20 11:34:02;;;;;;;6.78;5.93;;;24.90;99.90;;;;;;5041019;28;20057;-87
2023/06/20 11:36:31;;;;;;;7.25;6.00;;;25.00;99.90;;;;;;5005037;28;20136;-87
2023/06/20 11:39:07;;;;;;;6.80;6.10;;;25.20;99.90;;;;;;5000376;28;20053;-88
2023/06/20 11:41:44;;;;;;;7.75;6.95;;;25.40;99.90;;;;;;5035984;28;20529;-88
2023/06/20 11:44:23;;;;;;;8.10;6.57;;;25.40;99.90;;;;;;5019620;28;20045;-87
2023/06/20 11:46:49;;;;;;;8.07;6.57;;;25.50;99.90;;;;;;5012775;28;20049;-87
2023/06/20 11:49:30;;;;;;;8.73;7.78;;;25.50;99.90;;;;;;5027977;28;20056;-87
2023/06/20 11:51:58;;;;;;;9.23;8.20;;;25.60;99.90;;;;;;5032022;28;20397;-87
2023/06/20 11:54:27;;;;;;;8.43;6.68;;;25.70;99.90;;;;;;5047610;28;20045;-86
2023/06/20 11:56:56;;;;;;;7.70;6.65;;;25.80;99.90;;;;;;5036477;28;20041;-87
2023/06/20 11:59:31;;;;;;;7.70;6.75;;;25.90;99.90;;;;;;5016242;28;20072;-87
2023/06/20 12:01:59;;;;;;;8.18;7.05;;;25.90;99.90;;;;;;5027250;28;20037;-87
2023/06/20 12:04:25;;;;;;;4.70;3.83;;;26.00;99.90;;;;;;5050695;28;20121;-87
2023/06/20 12:07:07;;;;;;;5.55;4.45;;;25.90;99.90;;;;;;5023801;28;20054;-87
2023/06/20 12:09:40;;;;;;;7.55;4.80;;;26.00;99.90;;;;;;5009231;28;20037;-86
2023/06/20 12:12:09;;;;;;;5.80;5.10;;;26.10;99.90;;;;;;5025414;28;20046;-87
2023/06/20 12:14:37;;;;;;;9.48;6.53;;;26.00;99.90;;;;;;5014565;28;20057;-87
2023/06/20 12:17:03;;;;;;;10.52;6.80;;;26.00;99.90;;;;;;5038550;28;20060;-86
2023/06/20 12:19:29;;;;;;;16.77;13.63;;;26.10;99.90;;;;;;5016890;28;20048;-86
2023/06/20 12:21:55;;;;;;;21.20;17.67;;;26.10;99.90;;;;;;5012700;28;20045;-87
2023/06/20 12:24:24;;;;;;;13.43;11.02;;;26.20;99.90;;;;;;5042328;28;20045;-87
2023/06/20 12:26:51;;;;;;;9.35;6.43;;;26.30;99.90;;;;;;5042185;28;20045;-86
2023/06/20 12:29:17;;;;;;;7.50;5.65;;;26.40;99.90;;;;;;5022076;28;20377;-86
2023/06/20 12:31:43;;;;;;;5.70;4.85;;;26.50;99.90;;;;;;5018440;28;20109;-86
2023/06/20 12:34:09;;;;;;;5.55;4.72;;;26.50;99.90;;;;;;5004389;28;20053;-86
2023/06/20 12:36:34;;;;;;;4.90;3.75;;;26.50;99.60;;;;;;5020777;28;20045;-86
2023/06/20 12:39:01;;;;;;;4.43;3.60;;;26.50;99.00;;;;;;5036278;28;20112;-86
2023/06/20 12:41:38;;;;;;;4.47;3.42;;;26.50;98.80;;;;;;5037914;28;20045;-87
2023/06/20 12:44:04;;;;;;;4.03;3.33;;;26.70;98.90;;;;;;5021914;28;20083;-87
2023/06/20 12:46:29;;;;;;;4.05;3.40;;;26.80;98.60;;;;;;5030617;28;20080;-87